Time;durP1;ratioP1;P1;durP2;ratioP2;P2;SDS_P1;SDS_P2;PMS_P1;PMS_P2;Temp;Humidity;BMP_temperature;BMP_pressure;BME280_temperature;BME280_humidity;BME280_pressure;Samples;Min_cycle;Max_cycle;Signal;HPM_P1;HPM_P2
2023/01/04 00:00:26;;;;;;;7.95;2.90;;;5.80;99.90;;;;;;4827441;29;20095;-75
2023/01/04 00:02:52;;;;;;;14.23;2.78;;;5.80;99.90;;;;;;4847599;29;20399;-74
2023/01/04 00:05:18;;;;;;;11.60;3.10;;;5.80;99.90;;;;;;4841752;29;20101;-74
2023/01/04 00:07:43;;;;;;;5.05;2.45;;;5.70;99.90;;;;;;4844563;29;20053;-74
2023/01/04 00:10:09;;;;;;;5.88;2.67;;;5.70;99.90;;;;;;4851315;29;20038;-74
2023/01/04 00:12:35;;;;;;;7.75;2.90;;;5.70;99.90;;;;;;4848597;29;20044;-74
2023/01/04 00:15:01;;;;;;;3.45;2.50;;;5.60;99.90;;;;;;4859013;29;20120;-74
2023/01/04 00:17:27;;;;;;;5.18;2.25;;;5.60;99.90;;;;;;4852214;29;20042;-74
2023/01/04 00:19:53;;;;;;;7.15;3.53;;;5.60;99.90;;;;;;4857758;29;20037;-75
2023/01/04 00:22:20;;;;;;;6.93;3.17;;;5.60;99.90;;;;;;4853965;29;20065;-74
2023/01/04 00:24:45;;;;;;;4.75;2.13;;;5.60;99.90;;;;;;4856741;29;20490;-74
2023/01/04 00:27:11;;;;;;;7.88;2.88;;;5.50;99.90;;;;;;4854333;29;20033;-74
2023/01/04 00:29:37;;;;;;;5.43;3.05;;;5.50;99.90;;;;;;4854267;29;20033;-74
2023/01/04 00:32:03;;;;;;;5.35;2.95;;;5.50;99.90;;;;;;4857762;29;20037;-74
2023/01/04 00:34:28;;;;;;;4.45;2.70;;;5.50;99.90;;;;;;4853419;29;20486;-74
2023/01/04 00:36:54;;;;;;;5.43;2.50;;;5.50;99.90;;;;;;4856763;29;20050;-74
2023/01/04 00:39:20;;;;;;;4.88;2.90;;;5.50;99.90;;;;;;4852881;29;20131;-74
2023/01/04 00:41:48;;;;;;;5.55;2.97;;;5.50;99.90;;;;;;4858817;29;20040;-74
2023/01/04 00:44:14;;;;;;;4.60;2.38;;;5.50;99.90;;;;;;4851356;29;20104;-74
2023/01/04 00:46:41;;;;;;;7.10;2.83;;;5.60;99.90;;;;;;4858138;29;20041;-74
2023/01/04 00:49:09;;;;;;;5.97;2.65;;;5.50;99.90;;;;;;4852175;29;20153;-74
2023/01/04 00:51:37;;;;;;;11.68;4.35;;;5.60;99.90;;;;;;4858005;29;20064;-74
2023/01/04 00:54:06;;;;;;;6.35;3.17;;;5.50;99.90;;;;;;4851478;29;20034;-74
2023/01/04 00:56:33;;;;;;;7.30;3.30;;;5.50;99.90;;;;;;4856506;29;20545;-74
2023/01/04 00:59:01;;;;;;;5.80;3.22;;;5.50;99.90;;;;;;4851219;29;20429;-74
2023/01/04 01:01:29;;;;;;;7.38;4.18;;;5.40;99.90;;;;;;4856692;29;20505;-74
2023/01/04 01:03:59;;;;;;;10.27;4.20;;;5.40;99.90;;;;;;4852339;29;20045;-74
2023/01/04 01:06:26;;;;;;;8.40;3.80;;;5.40;99.90;;;;;;4857818;29;20104;-74
2023/01/04 01:08:52;;;;;;;12.90;4.10;;;5.30;99.90;;;;;;4851095;29;20061;-74
2023/01/04 01:11:20;;;;;;;13.02;3.95;;;5.40;99.90;;;;;;4856450;29;20040;-73
2023/01/04 01:13:46;;;;;;;7.90;4.03;;;5.30;99.90;;;;;;4849853;29;20060;-74
2023/01/04 01:16:16;;;;;;;6.85;4.68;;;5.30;99.90;;;;;;4857710;29;20036;-75
2023/01/04 01:18:43;;;;;;;5.10;3.35;;;5.30;99.90;;;;;;4857939;23;20053;-78
2023/01/04 01:21:16;;;;;;;11.80;4.60;;;5.30;99.90;;;;;;4843758;29;20133;-79
2023/01/04 01:23:42;;;;;;;6.72;4.47;;;5.30;99.90;;;;;;4824582;29;20107;-79
2023/01/04 01:26:16;;;;;;;7.50;3.65;;;5.30;99.90;;;;;;4849286;29;20034;-78
2023/01/04 01:28:43;;;;;;;7.07;4.65;;;5.30;99.90;;;;;;4865490;29;20026;-79
2023/01/04 01:31:21;;;;;;;6.90;4.07;;;5.40;99.90;;;;;;4850776;29;20038;-78
2023/01/04 01:33:49;;;;;;;7.45;4.55;;;5.40;99.90;;;;;;4850295;29;20057;-79
2023/01/04 01:36:25;;;;;;;8.73;4.32;;;5.40;99.90;;;;;;5067852;28;20399;-80
2023/01/04 01:38:52;;;;;;;8.45;4.93;;;5.40;99.90;;;;;;5047003;28;20033;-80
2023/01/04 01:41:27;;;;;;;9.43;5.13;;;5.50;99.90;;;;;;5048017;28;20477;-80
2023/01/04 01:44:45;;;;;;;9.60;5.05;;;5.50;99.90;;;;;;5046096;28;20033;-80
2023/01/04 01:47:22;;;;;;;7.45;4.68;;;5.50;99.90;;;;;;5042282;28;20037;-80
2023/01/04 01:49:52;;;;;;;5.43;3.22;;;5.50;99.90;;;;;;5045957;28;20112;-80
2023/01/04 01:52:26;;;;;;;7.57;3.97;;;5.50;99.90;;;;;;5038736;28;20025;-80
2023/01/04 01:54:59;;;;;;;8.23;4.55;;;5.50;99.90;;;;;;5045618;28;20029;-80
2023/01/04 01:57:29;;;;;;;5.30;3.15;;;5.40;99.90;;;;;;5046360;28;20033;-80
2023/01/04 01:59:59;;;;;;;6.57;3.67;;;5.40;99.90;;;;;;5046687;28;20112;-80
2023/01/04 02:02:25;;;;;;;6.13;3.87;;;5.30;99.90;;;;;;5047652;28;20029;-80
2023/01/04 02:04:51;;;;;;;13.13;4.65;;;5.30;99.90;;;;;;5040585;28;20036;-80
2023/01/04 02:07:24;;;;;;;8.70;4.05;;;5.30;99.90;;;;;;5032286;28;20072;-79
2023/01/04 02:09:50;;;;;;;11.27;5.18;;;5.20;99.90;;;;;;5045406;28;20110;-80
2023/01/04 02:12:16;;;;;;;9.15;4.70;;;5.20;99.90;;;;;;5042635;28;20120;-79
2023/01/04 02:14:45;;;;;;;16.20;4.60;;;5.20;99.90;;;;;;5045489;28;20021;-79
2023/01/04 02:17:42;;;;;;;9.32;5.32;;;5.20;99.90;;;;;;5045980;28;20029;-79
2023/01/04 02:20:37;;;;;;;10.30;4.50;;;5.20;99.90;;;;;;5046406;28;20394;-79
2023/01/04 02:23:45;;;;;;;9.43;4.00;;;5.20;99.90;;;;;;5045043;28;20140;-79
2023/01/04 02:26:33;;;;;;;7.72;3.28;;;5.20;99.90;;;;;;5045343;28;20025;-79
2023/01/04 02:29:40;;;;;;;8.95;3.90;;;5.20;99.90;;;;;;5045037;28;20028;-80
2023/01/04 02:32:39;;;;;;;7.93;4.28;;;5.20;99.90;;;;;;5045949;28;20017;-79
2023/01/04 02:35:46;;;;;;;5.63;2.97;;;5.30;99.90;;;;;;5060065;28;20091;-79
2023/01/04 02:38:53;;;;;;;8.13;4.80;;;5.30;99.90;;;;;;5044716;28;20061;-79
2023/01/04 02:41:36;;;;;;;10.48;5.45;;;5.30;99.90;;;;;;5054048;28;20035;-79
2023/01/04 02:50:48;;;;;;;7.45;4.50;;;5.40;99.90;;;;;;5031962;28;20049;-79
2023/01/04 02:53:26;;;;;;;5.68;3.72;;;5.40;99.90;;;;;;5032891;28;20401;-79
2023/01/04 02:56:37;;;;;;;8.18;4.97;;;5.40;99.90;;;;;;5033035;28;20025;-79
2023/01/04 02:59:23;;;;;;;9.63;4.85;;;5.40;99.90;;;;;;5032340;28;20397;-79
2023/01/04 03:08:33;;;;;;;10.90;5.70;;;5.40;99.90;;;;;;5030898;28;20045;-80
2023/01/04 03:12:30;;;;;;;8.23;4.45;;;5.30;99.90;;;;;;5031804;28;20420;-79
2023/01/04 03:13:55;;;;;;;7.50;4.30;;;5.30;99.90;;;;;;5031865;28;20108;-80
2023/01/04 03:16:24;;;;;;;8.27;4.68;;;5.30;99.90;;;;;;5031525;28;20029;-80
2023/01/04 03:18:54;;;;;;;8.65;4.32;;;5.30;99.90;;;;;;5011587;28;20156;-79
2023/01/04 03:21:24;;;;;;;6.53;4.72;;;5.30;99.90;;;;;;5024479;28;20029;-79
2023/01/04 03:35:21;;;;;;;10.25;5.45;;;5.40;99.90;;;;;;5032534;28;20389;-80
2023/01/04 03:50:37;;;;;;;6.72;3.85;;;5.40;99.90;;;;;;5031221;28;20167;-79
2023/01/04 03:53:06;;;;;;;13.98;6.15;;;5.40;99.90;;;;;;5030353;28;20057;-79
2023/01/04 03:55:35;;;;;;;6.10;3.67;;;5.40;99.90;;;;;;5030951;28;20113;-79
2023/01/04 03:58:01;;;;;;;12.35;4.15;;;5.40;99.90;;;;;;5028804;28;20366;-79
2023/01/04 04:00:27;;;;;;;6.60;3.75;;;5.40;99.90;;;;;;5030886;28;20025;-80
2023/01/04 04:02:52;;;;;;;11.52;4.95;;;5.40;99.90;;;;;;5030067;28;20436;-79
2023/01/04 04:10:52;;;;;;;15.18;4.50;;;5.40;99.90;;;;;;5031808;28;20029;-79
2023/01/04 04:13:17;;;;;;;8.13;4.45;;;5.40;99.90;;;;;;5031171;28;20037;-79
2023/01/04 04:15:43;;;;;;;7.50;3.00;;;5.40;99.90;;;;;;5031782;28;20384;-79
2023/01/04 04:18:09;;;;;;;7.20;4.22;;;5.40;99.90;;;;;;5030651;28;20084;-79
2023/01/04 04:20:35;;;;;;;7.28;4.85;;;5.40;99.90;;;;;;5031734;28;20037;-79
2023/01/04 04:23:01;;;;;;;14.07;4.30;;;5.40;99.90;;;;;;5029477;28;20084;-79
2023/01/04 04:25:27;;;;;;;9.30;3.10;;;5.40;99.90;;;;;;5030525;28;20053;-80
2023/01/04 04:27:52;;;;;;;7.45;3.78;;;5.50;99.90;;;;;;5030482;28;20079;-80
2023/01/04 04:30:18;;;;;;;6.57;3.10;;;5.50;99.90;;;;;;5030465;28;20047;-79
2023/01/04 04:32:44;;;;;;;6.13;3.83;;;5.50;99.90;;;;;;5031679;28;20037;-79
2023/01/04 04:35:10;;;;;;;4.43;3.00;;;5.50;99.90;;;;;;5030361;28;20140;-79
2023/01/04 04:37:36;;;;;;;6.97;3.67;;;5.50;99.90;;;;;;5029706;28;20037;-79
2023/01/04 04:40:05;;;;;;;5.03;3.13;;;5.50;99.90;;;;;;5030424;28;20488;-78
2023/01/04 04:42:31;;;;;;;7.95;3.83;;;5.50;99.90;;;;;;5030279;28;20026;-79
2023/01/04 04:44:57;;;;;;;5.25;3.63;;;5.60;99.90;;;;;;5029403;28;20124;-79
2023/01/04 04:47:23;;;;;;;5.57;2.95;;;5.60;99.90;;;;;;5031132;28;20029;-79
2023/01/04 04:49:48;;;;;;;6.30;3.35;;;5.60;99.90;;;;;;5029323;28;20088;-79
2023/01/04 04:52:14;;;;;;;6.88;3.35;;;5.50;99.90;;;;;;5031043;28;20048;-79
2023/01/04 04:54:40;;;;;;;10.02;3.45;;;5.50;99.90;;;;;;5029074;28;20029;-79
2023/01/04 04:57:05;;;;;;;6.78;3.50;;;5.50;99.90;;;;;;5031011;28;20095;-78
2023/01/04 04:59:31;;;;;;;9.57;4.32;;;5.50;99.90;;;;;;5029912;28;20516;-78
2023/01/04 05:01:57;;;;;;;9.20;3.97;;;5.50;99.90;;;;;;5030959;28;20037;-77
2023/01/04 05:04:23;;;;;;;6.57;3.92;;;5.50;99.90;;;;;;5029720;28;20084;-78
2023/01/04 05:06:49;;;;;;;8.38;4.63;;;5.40;99.90;;;;;;5029387;28;20688;-78
2023/01/04 05:09:15;;;;;;;9.10;3.22;;;5.40;99.90;;;;;;5029673;28;20408;-78
2023/01/04 05:14:26;;;;;;;9.00;4.65;;;5.30;99.90;;;;;;5028830;28;20075;-78
2023/01/04 05:16:52;;;;;;;11.77;5.05;;;5.30;99.90;;;;;;5030375;28;20481;-79
2023/01/04 05:19:18;;;;;;;8.80;3.75;;;5.40;99.90;;;;;;5028690;28;20045;-79
2023/01/04 05:21:43;;;;;;;11.57;5.30;;;5.40;99.90;;;;;;5030837;28;20025;-78
2023/01/04 05:24:11;;;;;;;11.23;4.93;;;5.40;99.90;;;;;;5029739;28;20666;-78
2023/01/04 05:26:37;;;;;;;14.82;5.85;;;5.40;99.90;;;;;;5028907;28;20414;-78
2023/01/04 05:29:03;;;;;;;11.93;5.50;;;5.40;99.90;;;;;;5028231;28;20477;-78
2023/01/04 05:31:29;;;;;;;16.27;6.05;;;5.40;99.90;;;;;;4997740;28;20040;-78
2023/01/04 05:33:55;;;;;;;13.70;5.82;;;5.40;99.90;;;;;;5022804;28;21294;-77
2023/01/04 05:36:20;;;;;;;18.48;5.70;;;5.40;99.90;;;;;;5012741;28;20187;-78
2023/01/04 05:38:46;;;;;;;14.70;5.68;;;5.40;99.90;;;;;;5021332;28;20379;-77
2023/01/04 05:43:56;;;;;;;8.70;3.97;;;5.40;99.90;;;;;;5009667;28;20039;-77
2023/01/04 05:46:22;;;;;;;14.32;7.13;;;5.50;99.90;;;;;;5010452;28;20033;-78
2023/01/04 05:48:48;;;;;;;22.20;5.18;;;5.50;99.90;;;;;;5009621;28;20034;-77
2023/01/04 05:51:13;;;;;;;15.38;5.32;;;5.50;99.90;;;;;;5010782;28;20465;-78
2023/01/04 05:53:39;;;;;;;16.27;5.68;;;5.60;99.90;;;;;;5009014;28;20041;-78
2023/01/04 05:56:05;;;;;;;8.80;4.60;;;5.60;99.90;;;;;;5008811;28;20037;-80
2023/01/04 05:58:31;;;;;;;20.50;5.82;;;5.70;99.90;;;;;;4994632;28;20125;-83
2023/01/04 06:00:57;;;;;;;15.77;5.72;;;5.70;99.90;;;;;;5010952;28;20157;-79
2023/01/04 06:03:23;;;;;;;12.45;5.53;;;5.80;99.90;;;;;;5010040;28;20121;-78
2023/01/04 06:05:50;;;;;;;18.13;5.90;;;5.90;99.90;;;;;;5010187;28;20033;-80
2023/01/04 06:08:16;;;;;;;9.68;5.32;;;6.00;99.90;;;;;;5008568;28;20041;-80
2023/01/04 06:10:41;;;;;;;13.63;5.35;;;6.00;99.90;;;;;;5010480;28;20100;-80
2023/01/04 06:13:07;;;;;;;8.40;4.75;;;6.00;99.90;;;;;;5009705;28;20458;-80
2023/01/04 06:15:33;;;;;;;9.68;5.05;;;6.00;99.90;;;;;;5010242;28;20026;-80
2023/01/04 06:17:59;;;;;;;16.38;5.75;;;6.00;99.90;;;;;;5009251;28;20038;-80
2023/01/04 06:20:25;;;;;;;11.43;5.82;;;6.00;99.90;;;;;;5010263;28;20030;-79
2023/01/04 06:22:50;;;;;;;15.13;4.90;;;6.10;99.90;;;;;;5011101;28;20018;-76
2023/01/04 06:25:16;;;;;;;13.02;5.85;;;6.10;99.90;;;;;;5013882;28;20034;-78
2023/01/04 06:27:42;;;;;;;13.07;6.43;;;6.10;99.90;;;;;;5012259;28;20076;-77
2023/01/04 06:30:09;;;;;;;10.68;4.03;;;6.10;99.90;;;;;;5012141;28;20830;-80
2023/01/04 06:32:34;;;;;;;13.23;5.40;;;6.20;99.90;;;;;;5014532;28;20034;-83
2023/01/04 06:35:00;;;;;;;9.90;4.95;;;6.20;99.90;;;;;;5012669;28;20036;-81
2023/01/04 06:37:26;;;;;;;8.57;4.18;;;6.30;99.90;;;;;;5012478;28;20189;-84
2023/01/04 06:39:52;;;;;;;14.90;5.65;;;6.30;99.90;;;;;;5013599;28;20065;-82
2023/01/04 06:45:03;;;;;;;13.57;4.80;;;6.30;99.90;;;;;;5012260;28;20030;-75
2023/01/04 06:47:29;;;;;;;9.98;4.38;;;6.30;99.90;;;;;;5012978;28;20047;-78
2023/01/04 06:49:54;;;;;;;12.35;4.88;;;6.40;99.90;;;;;;5009521;28;20032;-80
2023/01/04 06:52:20;;;;;;;15.60;5.50;;;6.40;99.90;;;;;;5013569;28;20034;-78
2023/01/04 06:54:46;;;;;;;10.10;5.45;;;6.40;99.90;;;;;;5011920;28;20038;-77
2023/01/04 06:57:12;;;;;;;7.97;4.22;;;6.40;99.90;;;;;;5013229;28;20573;-78
2023/01/04 06:59:38;;;;;;;11.70;4.93;;;6.50;99.90;;;;;;5011633;28;20065;-77
2023/01/04 07:02:04;;;;;;;15.10;5.00;;;6.50;99.90;;;;;;5011669;28;20057;-80
2023/01/04 07:04:29;;;;;;;11.10;4.65;;;6.50;99.90;;;;;;5012854;28;20030;-78
2023/01/04 07:06:56;;;;;;;10.70;4.88;;;6.50;99.90;;;;;;5013277;28;20485;-78
2023/01/04 07:09:22;;;;;;;10.88;4.85;;;6.50;99.90;;;;;;5011225;28;20076;-83
2023/01/04 07:11:48;;;;;;;8.30;5.07;;;6.50;99.90;;;;;;5012168;28;20656;-77
2023/01/04 07:14:14;;;;;;;7.15;3.78;;;6.60;99.90;;;;;;5012130;28;20045;-77
2023/01/04 07:16:39;;;;;;;7.82;3.92;;;6.60;99.90;;;;;;5012775;28;20029;-77
2023/01/04 07:19:07;;;;;;;15.93;3.55;;;6.60;99.90;;;;;;5014287;23;20050;-75
2023/01/04 07:21:33;;;;;;;10.10;4.78;;;6.50;99.90;;;;;;4982311;28;20018;-74
2023/01/04 07:23:59;;;;;;;8.77;3.53;;;6.60;99.90;;;;;;4992399;28;20045;-74
2023/01/04 07:26:24;;;;;;;5.20;3.13;;;6.60;99.90;;;;;;4992955;28;20030;-74
2023/01/04 07:31:34;;;;;;;5.93;2.90;;;6.80;99.90;;;;;;4993073;28;20034;-71
2023/01/04 07:34:00;;;;;;;6.68;2.95;;;6.80;99.90;;;;;;4990708;28;20033;-74
2023/01/04 07:36:25;;;;;;;12.15;3.22;;;6.90;99.90;;;;;;4992353;28;20031;-72
2023/01/04 07:38:51;;;;;;;5.35;2.10;;;7.00;99.90;;;;;;4991821;28;20372;-73
2023/01/04 07:41:17;;;;;;;4.50;2.50;;;7.00;99.90;;;;;;4992787;28;20030;-73
2023/01/04 07:43:42;;;;;;;12.32;2.53;;;7.00;99.90;;;;;;4991907;28;20030;-72
2023/01/04 07:46:08;;;;;;;5.63;2.55;;;7.00;99.90;;;;;;4992293;28;20478;-73
2023/01/04 07:48:34;;;;;;;5.00;2.08;;;7.00;99.90;;;;;;4991486;28;20372;-73
2023/01/04 07:50:59;;;;;;;5.20;2.55;;;7.10;99.90;;;;;;4992771;28;20038;-73
2023/01/04 07:53:25;;;;;;;4.22;2.10;;;7.20;99.90;;;;;;4992000;28;20069;-73
2023/01/04 07:55:58;;;;;;;6.70;2.30;;;7.20;99.90;;;;;;4990769;28;20062;-73
2023/01/04 07:58:25;;;;;;;13.43;2.53;;;7.20;99.90;;;;;;4990108;28;20109;-73
2023/01/04 08:00:50;;;;;;;4.80;2.08;;;7.30;99.90;;;;;;4992370;28;20570;-73
2023/01/04 08:03:16;;;;;;;5.30;2.20;;;7.30;99.90;;;;;;4991649;28;20037;-73
2023/01/04 08:05:42;;;;;;;8.40;2.70;;;7.30;99.90;;;;;;4992276;28;20292;-73
2023/01/04 08:08:09;;;;;;;6.00;2.35;;;7.30;99.90;;;;;;4989872;28;20042;-73
2023/01/04 08:10:35;;;;;;;4.25;1.95;;;7.30;99.90;;;;;;4989359;28;20045;-73
2023/01/04 08:13:00;;;;;;;3.67;2.03;;;7.40;99.90;;;;;;4991647;28;20030;-73
2023/01/04 08:15:26;;;;;;;3.95;1.77;;;7.50;99.90;;;;;;4991410;28;20128;-70
2023/01/04 08:17:52;;;;;;;6.07;2.35;;;7.40;99.90;;;;;;4990049;28;20034;-71
2023/01/04 08:20:18;;;;;;;3.85;1.80;;;7.40;99.90;;;;;;4990721;28;20038;-72
2023/01/04 08:22:44;;;;;;;3.05;1.50;;;7.50;99.90;;;;;;4992201;28;20049;-72
2023/01/04 08:25:10;;;;;;;4.15;2.42;;;7.50;99.90;;;;;;4990753;28;20486;-73
2023/01/04 08:27:35;;;;;;;4.28;1.98;;;7.40;99.90;;;;;;4993627;28;20034;-77
2023/01/04 08:30:01;;;;;;;3.30;1.63;;;7.50;99.90;;;;;;4993149;28;20121;-74
2023/01/04 08:32:27;;;;;;;2.38;1.60;;;7.50;99.90;;;;;;4992036;28;20058;-72
2023/01/04 08:34:53;;;;;;;3.55;1.67;;;7.50;99.90;;;;;;4990658;28;20051;-71
2023/01/04 08:37:19;;;;;;;3.67;1.65;;;7.50;99.90;;;;;;4990960;28;20113;-75
2023/01/04 08:39:45;;;;;;;4.10;1.80;;;7.50;99.90;;;;;;4990845;28;20030;-73
2023/01/04 08:42:10;;;;;;;2.33;1.48;;;7.50;99.90;;;;;;4991117;28;20505;-72
2023/01/04 08:44:36;;;;;;;2.78;1.30;;;7.50;99.90;;;;;;4989081;28;20041;-73
2023/01/04 08:47:02;;;;;;;4.63;1.90;;;7.50;99.90;;;;;;4991174;28;20125;-72
2023/01/04 08:49:28;;;;;;;4.60;1.67;;;7.50;99.90;;;;;;4991028;28;20034;-72
2023/01/04 08:51:54;;;;;;;1.63;1.17;;;7.50;99.90;;;;;;4989890;28;20050;-73
2023/01/04 08:54:21;;;;;;;3.03;1.27;;;7.60;99.90;;;;;;4986695;28;20094;-72
2023/01/04 08:56:47;;;;;;;6.38;0.88;;;7.60;99.90;;;;;;4989888;28;20030;-72
2023/01/04 08:59:14;;;;;;;1.42;1.00;;;7.70;99.90;;;;;;4991060;28;20505;-72
2023/01/04 09:01:40;;;;;;;2.97;1.23;;;7.70;99.90;;;;;;4989077;28;20081;-73
2023/01/04 09:04:06;;;;;;;10.55;1.33;;;7.70;99.90;;;;;;5006387;28;20038;-73
2023/01/04 09:06:33;;;;;;;4.03;1.27;;;7.70;99.90;;;;;;4989795;28;20604;-71
2023/01/04 09:08:58;;;;;;;3.83;1.02;;;7.80;99.90;;;;;;4990001;28;20034;-72
2023/01/04 09:11:25;;;;;;;2.88;1.15;;;7.80;99.90;;;;;;4989832;28;20052;-72
2023/01/04 09:13:57;;;;;;;1.98;0.98;;;7.70;99.90;;;;;;4991093;28;20570;-72
2023/01/04 09:16:23;;;;;;;1.30;0.63;;;7.80;99.90;;;;;;4987548;28;20537;-73
2023/01/04 09:18:48;;;;;;;4.00;1.45;;;7.80;99.90;;;;;;4989388;28;20053;-71
2023/01/04 09:21:23;;;;;;;1.38;1.10;;;7.90;99.90;;;;;;4988781;28;20364;-73
2023/01/04 09:23:49;;;;;;;1.42;0.80;;;7.90;99.90;;;;;;4991062;28;20109;-72
2023/01/04 09:26:21;;;;;;;1.50;1.10;;;7.90;99.90;;;;;;4990265;28;20464;-72
2023/01/04 09:28:48;;;;;;;1.88;0.65;;;7.90;99.90;;;;;;4985646;28;20061;-72
2023/01/04 09:31:17;;;;;;;1.15;1.00;;;8.00;99.90;;;;;;4974372;28;20062;-73
2023/01/04 09:33:44;;;;;;;0.52;0.52;;;8.00;99.90;;;;;;4987815;28;20026;-73
2023/01/04 09:36:14;;;;;;;1.33;0.70;;;8.10;99.90;;;;;;4988747;28;20063;-73
2023/01/04 09:38:40;;;;;;;0.90;0.57;;;8.00;99.90;;;;;;4989402;28;20077;-73
2023/01/04 09:41:30;;;;;;;0.40;0.40;;;8.00;99.90;;;;;;4990526;28;20375;-73
2023/01/04 09:44:20;;;;;;;1.50;0.45;;;8.10;99.90;;;;;;4990354;28;20030;-73
2023/01/04 09:47:09;;;;;;;1.25;0.60;;;8.10;99.90;;;;;;4987032;28;20096;-73
2023/01/04 09:49:59;;;;;;;2.13;0.90;;;8.10;99.90;;;;;;4983911;28;20049;-72
2023/01/04 09:52:46;;;;;;;0.93;0.60;;;8.10;99.90;;;;;;4981767;28;20406;-72
2023/01/04 09:55:37;;;;;;;1.25;0.90;;;8.20;99.90;;;;;;4989476;28;20054;-73
2023/01/04 09:58:25;;;;;;;1.60;0.68;;;8.20;99.90;;;;;;4993181;28;20062;-73
2023/01/04 10:01:19;;;;;;;1.23;0.70;;;8.20;99.90;;;;;;4993622;28;20209;-73
2023/01/04 10:04:45;;;;;;;3.50;0.98;;;8.30;99.90;;;;;;4988334;28;20038;-73
2023/01/04 10:07:36;;;;;;;2.25;0.82;;;8.30;99.90;;;;;;4976292;28;20054;-72
2023/01/04 10:10:06;;;;;;;6.13;0.73;;;8.30;99.90;;;;;;4991463;28;20491;-73
2023/01/04 10:13:09;;;;;;;0.57;0.50;;;8.30;99.90;;;;;;4992279;28;20065;-73
2023/01/04 10:15:54;;;;;;;1.02;0.60;;;8.30;99.90;;;;;;4993112;28;20037;-72
2023/01/04 10:18:51;;;;;;;1.30;0.60;;;8.30;99.90;;;;;;4992885;28;20066;-73
2023/01/04 10:21:55;;;;;;;4.85;0.40;;;8.30;99.90;;;;;;4973706;28;20478;-73
2023/01/04 10:25:01;;;;;;;2.42;0.95;;;8.40;99.90;;;;;;4985464;28;20546;-72
2023/01/04 10:27:35;;;;;;;2.35;0.93;;;8.30;99.90;;;;;;4993266;28;20100;-73
2023/01/04 10:30:10;;;;;;;0.30;0.30;;;8.30;99.90;;;;;;4994332;28;20165;-73
2023/01/04 10:32:45;;;;;;;3.08;1.38;;;8.30;99.90;;;;;;4991889;28;20069;-73
2023/01/04 10:35:26;;;;;;;1.17;0.80;;;8.40;99.90;;;;;;4993936;28;20030;-72
2023/01/04 10:38:02;;;;;;;0.38;0.38;;;8.40;99.90;;;;;;4992588;28;20030;-72
2023/01/04 10:40:32;;;;;;;1.10;0.50;;;8.40;99.90;;;;;;4994067;28;20035;-73
2023/01/04 10:43:24;;;;;;;0.93;0.60;;;8.40;99.90;;;;;;4991687;28;20034;-73
2023/01/04 10:46:15;;;;;;;0.98;0.50;;;8.40;99.90;;;;;;4978963;28;20038;-73
2023/01/04 10:48:55;;;;;;;1.03;0.43;;;8.40;99.90;;;;;;4993550;28;20101;-73
2023/01/04 10:51:37;;;;;;;1.60;1.42;;;8.40;99.90;;;;;;4974007;28;20031;-72
2023/01/04 10:54:35;;;;;;;1.40;0.60;;;8.50;99.90;;;;;;4992662;28;20035;-73
2023/01/04 10:57:19;;;;;;;2.08;0.70;;;8.50;99.90;;;;;;4991122;28;20030;-73
2023/01/04 11:00:01;;;;;;;0.95;0.65;;;8.50;99.90;;;;;;4993529;28;20038;-72
2023/01/04 11:02:59;;;;;;;0.85;0.50;;;8.60;99.90;;;;;;5007693;28;20221;-73
2023/01/04 11:06:26;;;;;;;7.88;1.02;;;8.60;99.90;;;;;;4988184;28;20688;-72
2023/01/04 11:08:58;;;;;;;5.68;0.90;;;8.50;99.90;;;;;;4951782;28;20043;-76
2023/01/04 11:11:38;;;;;;;2.20;0.70;;;8.60;99.90;;;;;;4952133;28;20500;-72
2023/01/04 11:14:05;;;;;;;1.15;0.73;;;8.50;99.90;;;;;;4976055;28;20114;-73
2023/01/04 11:16:31;;;;;;;7.10;1.98;;;8.60;99.90;;;;;;4991304;28;20114;-72
2023/01/04 11:18:57;;;;;;;1.17;0.40;;;8.60;99.90;;;;;;4992958;28;20145;-72
2023/01/04 11:21:29;;;;;;;1.42;0.95;;;8.60;99.90;;;;;;4991187;28;20077;-73
2023/01/04 11:24:02;;;;;;;3.45;0.80;;;8.70;99.90;;;;;;4992708;28;20046;-73
2023/01/04 11:26:43;;;;;;;1.13;0.50;;;8.70;99.90;;;;;;4990928;28;20113;-73
2023/01/04 11:29:59;;;;;;;4.60;0.63;;;8.70;99.90;;;;;;4990221;28;20023;-73
2023/01/04 11:33:15;;;;;;;0.77;0.28;;;8.80;99.90;;;;;;4991202;28;20085;-73
2023/01/04 11:35:45;;;;;;;1.60;0.50;;;8.80;99.90;;;;;;4985241;28;20046;-73
2023/01/04 11:38:19;;;;;;;5.75;0.55;;;8.90;99.90;;;;;;4980059;28;22020;-73
2023/01/04 11:41:06;;;;;;;1.30;0.60;;;8.80;99.90;;;;;;4973482;28;20085;-73
2023/01/04 11:44:03;;;;;;;0.82;0.45;;;8.90;99.90;;;;;;4980959;28;20125;-73
2023/01/04 11:46:30;;;;;;;1.08;0.63;;;8.90;99.90;;;;;;4984281;28;20057;-73
2023/01/04 11:48:56;;;;;;;0.55;0.43;;;8.90;99.90;;;;;;4990502;28;20494;-73
2023/01/04 11:51:28;;;;;;;1.02;0.68;;;9.00;99.90;;;;;;4992874;28;20038;-73
2023/01/04 11:54:14;;;;;;;1.35;0.80;;;8.90;99.90;;;;;;4991281;28;20042;-73
2023/01/04 11:57:09;;;;;;;1.48;1.05;;;9.00;99.90;;;;;;4992293;28;20116;-72
2023/01/04 11:59:35;;;;;;;1.42;0.60;;;9.00;99.90;;;;;;4991395;28;20475;-73
2023/01/04 12:02:23;;;;;;;4.03;1.27;;;9.10;99.90;;;;;;4991343;28;20044;-73
2023/01/04 12:04:51;;;;;;;0.57;0.40;;;9.20;99.90;;;;;;4990061;28;20034;-73
2023/01/04 12:07:31;;;;;;;2.08;0.50;;;9.20;99.90;;;;;;4990975;28;20379;-73
2023/01/04 12:10:00;;;;;;;3.42;0.52;;;9.20;99.90;;;;;;4974666;28;20398;-73
2023/01/04 12:12:33;;;;;;;2.38;1.00;;;9.20;99.90;;;;;;4991384;28;20030;-73
2023/01/04 12:15:13;;;;;;;0.55;0.52;;;9.20;99.90;;;;;;5006744;28;20064;-73
2023/01/04 12:17:57;;;;;;;2.30;0.98;;;9.30;99.90;;;;;;4990616;28;20113;-74
2023/01/04 12:20:27;;;;;;;1.52;0.60;;;9.40;99.90;;;;;;4989124;28;20030;-73
2023/01/04 12:22:53;;;;;;;0.85;0.47;;;9.30;99.90;;;;;;4992188;28;20034;-74
2023/01/04 12:25:26;;;;;;;8.00;1.02;;;9.30;99.90;;;;;;4989721;28;20056;-73
2023/01/04 12:27:54;;;;;;;1.08;0.50;;;9.30;99.90;;;;;;4991643;28;20050;-73
2023/01/04 12:30:45;;;;;;;1.98;0.70;;;9.40;99.90;;;;;;4990304;28;20046;-73
2023/01/04 12:33:29;;;;;;;3.35;1.25;;;9.40;99.90;;;;;;4991023;28;20062;-73
2023/01/04 12:36:06;;;;;;;1.15;0.85;;;9.40;99.90;;;;;;4990716;28;20049;-73
2023/01/04 12:38:51;;;;;;;2.47;0.88;;;9.40;99.90;;;;;;4991501;28;20038;-73
2023/01/04 12:41:37;;;;;;;0.88;0.45;;;9.50;99.90;;;;;;4991699;28;20103;-73
2023/01/04 12:44:37;;;;;;;0.43;0.30;;;9.50;99.90;;;;;;4960469;28;20042;-72
2023/01/04 12:50:25;;;;;;;1.50;0.77;;;9.60;99.90;;;;;;4990976;28;20050;-73
2023/01/04 12:53:52;;;;;;;2.00;0.52;;;9.60;99.90;;;;;;4991504;28;20508;-74
2023/01/04 12:56:18;;;;;;;0.65;0.50;;;9.70;99.90;;;;;;4991565;28;20137;-73
2023/01/04 12:59:10;;;;;;;1.17;0.75;;;9.70;99.90;;;;;;4990734;28;20109;-72
2023/01/04 13:01:37;;;;;;;1.08;0.80;;;9.70;99.90;;;;;;4990274;28;20038;-73
2023/01/04 13:04:42;;;;;;;1.23;0.80;;;9.80;99.90;;;;;;4990312;28;20026;-73
2023/01/04 13:07:31;;;;;;;1.98;1.17;;;9.80;99.90;;;;;;4991033;28;20042;-72
2023/01/04 13:10:25;;;;;;;1.85;0.82;;;9.70;99.90;;;;;;4990609;28;20033;-73
2023/01/04 13:13:44;;;;;;;0.73;0.50;;;9.80;99.90;;;;;;4990084;28;20120;-73
2023/01/04 13:16:28;;;;;;;1.02;0.60;;;9.80;99.90;;;;;;4990989;28;20038;-73
2023/01/04 13:18:58;;;;;;;0.60;0.30;;;9.90;99.90;;;;;;5004228;23;20037;-75
2023/01/04 13:21:39;;;;;;;1.08;0.40;;;10.00;99.90;;;;;;5002180;28;20037;-76
2023/01/04 13:24:25;;;;;;;1.15;0.65;;;10.00;99.90;;;;;;4992345;28;20083;-75
2023/01/04 13:26:52;;;;;;;0.35;0.35;;;10.00;99.90;;;;;;5010259;28;20437;-76
2023/01/04 13:29:27;;;;;;;1.67;0.22;;;10.00;99.90;;;;;;4988652;28;20514;-75
2023/01/04 13:32:00;;;;;;;2.42;1.25;;;10.10;99.90;;;;;;4989534;28;20119;-76
2023/01/04 13:34:45;;;;;;;1.02;0.57;;;10.20;99.90;;;;;;4988679;28;20094;-77
2023/01/04 13:37:12;;;;;;;1.42;0.60;;;10.10;99.90;;;;;;4988693;28;20123;-77
2023/01/04 13:40:00;;;;;;;1.63;0.50;;;10.10;99.90;;;;;;4990148;28;20042;-76
2023/01/04 13:42:34;;;;;;;1.50;0.47;;;10.00;99.90;;;;;;4983289;28;20398;-76
2023/01/04 13:45:15;;;;;;;3.72;0.68;;;9.90;99.90;;;;;;4988859;28;20106;-76
2023/01/04 13:47:43;;;;;;;0.43;0.35;;;9.80;99.90;;;;;;4990624;28;20042;-75
2023/01/04 13:50:42;;;;;;;1.10;0.65;;;9.70;99.90;;;;;;4989708;28;20574;-75
2023/01/04 13:53:22;;;;;;;2.35;0.57;;;9.60;99.90;;;;;;4973808;28;20054;-74
2023/01/04 13:56:00;;;;;;;0.47;0.35;;;9.70;99.90;;;;;;4988880;28;20113;-74
2023/01/04 13:58:30;;;;;;;1.10;0.57;;;9.70;99.90;;;;;;4989915;28;20169;-77
2023/01/04 14:01:17;;;;;;;4.22;0.70;;;9.70;99.90;;;;;;4970553;28;20116;-77
2023/01/04 14:04:00;;;;;;;4.32;0.88;;;9.80;99.90;;;;;;4989774;28;20037;-76
2023/01/04 14:06:40;;;;;;;0.85;0.68;;;9.80;99.90;;;;;;4974319;28;20379;-76
2023/01/04 14:09:09;;;;;;;1.25;0.50;;;9.80;99.90;;;;;;4989074;28;20035;-75
2023/01/04 14:12:03;;;;;;;2.50;0.95;;;9.90;99.90;;;;;;4990635;28;20453;-76
2023/01/04 14:14:54;;;;;;;0.30;0.20;;;10.00;99.90;;;;;;4989651;28;20030;-75
2023/01/04 14:17:35;;;;;;;0.40;0.38;;;10.10;99.90;;;;;;4982836;28;20037;-74
2023/01/04 14:20:10;;;;;;;1.13;0.30;;;10.10;99.90;;;;;;4988199;28;20042;-76
2023/01/04 14:22:44;;;;;;;1.23;0.63;;;10.10;99.90;;;;;;4988604;28;20085;-75
2023/01/04 14:25:36;;;;;;;1.02;0.75;;;10.20;99.90;;;;;;4986360;28;20042;-74